createdAt,value
2018-07-10T00:00:07.295Z,2.03
2018-07-10T00:03:15.835Z,2.25
2018-07-10T00:10:13.940Z,2.10
2018-07-10T00:12:41.259Z,2.10
2018-07-10T00:15:08.594Z,2.00
2018-07-10T00:17:35.902Z,1.80
2018-07-10T00:20:03.251Z,2.02
2018-07-10T00:22:30.558Z,2.10
2018-07-10T00:24:57.996Z,2.10
2018-07-10T00:27:25.421Z,2.62
2018-07-10T00:29:52.811Z,1.80
2018-07-10T00:32:20.132Z,2.20
2018-07-10T00:34:47.474Z,2.30
2018-07-10T00:37:15.054Z,2.50
2018-07-10T00:39:42.468Z,2.30
2018-07-10T00:42:09.804Z,2.87
2018-07-10T00:44:37.159Z,2.40
2018-07-10T00:47:04.524Z,2.85
2018-07-10T00:49:31.935Z,3.00
2018-07-10T00:51:59.435Z,2.70
2018-07-10T00:54:26.736Z,2.50
2018-07-10T00:56:54.127Z,2.50
2018-07-10T00:59:21.617Z,2.80
2018-07-10T01:01:49.015Z,2.40
2018-07-10T01:04:16.307Z,2.00
2018-07-10T01:06:43.618Z,2.12
2018-07-10T01:09:17.764Z,2.25
2018-07-10T01:11:50.435Z,2.25
2018-07-10T01:14:17.871Z,2.17
2018-07-10T01:16:45.483Z,1.90
2018-07-10T01:19:14.720Z,2.02
2018-07-10T01:21:42.917Z,1.98
2018-07-10T01:24:10.302Z,2.00
2018-07-10T01:26:41.295Z,2.20
2018-07-10T01:29:19.716Z,2.20
2018-07-10T01:31:48.488Z,2.40
2018-07-10T01:34:15.865Z,2.40
2018-07-10T01:36:43.201Z,2.40
2018-07-10T01:39:10.577Z,2.00
2018-07-10T01:41:37.875Z,2.58
2018-07-10T01:44:05.499Z,2.12
2018-07-10T01:46:32.966Z,2.20
2018-07-10T01:49:00.299Z,2.40
2018-07-10T01:51:28.595Z,2.40
2018-07-10T01:53:55.924Z,2.00
2018-07-10T01:56:23.227Z,2.30
2018-07-10T01:58:51.218Z,2.00
2018-07-10T02:01:18.674Z,2.10
2018-07-10T02:03:46.029Z,2.00
2018-07-10T02:06:13.502Z,2.20
2018-07-10T02:08:40.892Z,2.50
2018-07-10T02:11:08.382Z,2.20
2018-07-10T02:13:35.716Z,2.60
2018-07-10T02:16:03.159Z,2.00
2018-07-10T02:18:30.761Z,2.75
2018-07-10T02:21:00.483Z,2.20
2018-07-10T02:23:31.640Z,2.65
2018-07-10T02:25:59.093Z,2.27
2018-07-10T02:28:26.398Z,2.20
2018-07-10T02:30:53.733Z,2.00
2018-07-10T02:33:21.262Z,2.10
2018-07-10T02:35:48.585Z,2.52
2018-07-10T02:38:15.942Z,2.10
2018-07-10T02:40:43.960Z,1.95
2018-07-10T02:43:11.373Z,2.30
2018-07-10T02:45:38.698Z,1.80
2018-07-10T02:48:06.201Z,2.10
2018-07-10T02:50:33.826Z,2.33
2018-07-10T02:53:01.198Z,2.50
2018-07-10T02:55:29.891Z,2.30
2018-07-10T02:57:57.300Z,2.30
2018-07-10T03:00:25.774Z,2.37
2018-07-10T03:02:53.244Z,2.20
2018-07-10T03:05:20.813Z,2.30
2018-07-10T03:07:48.445Z,2.60
2018-07-10T03:10:16.860Z,2.40
2018-07-10T03:12:44.314Z,2.22
2018-07-10T03:15:13.626Z,2.45
2018-07-10T03:17:41.100Z,2.70
2018-07-10T03:20:08.997Z,2.50
2018-07-10T03:22:36.537Z,2.30
2018-07-10T03:25:03.974Z,2.30
2018-07-10T03:27:31.609Z,2.55
2018-07-10T03:29:59.586Z,2.25
2018-07-10T03:32:26.933Z,2.60
2018-07-10T03:34:54.325Z,2.50
2018-07-10T03:37:21.964Z,2.95
2018-07-10T03:39:49.352Z,2.50
2018-07-10T03:42:17.673Z,2.27
2018-07-10T03:44:45.577Z,2.50
2018-07-10T03:47:14.523Z,2.60
2018-07-10T03:49:42.719Z,2.80
2018-07-10T03:52:12.914Z,2.50
2018-07-10T03:54:44.206Z,2.00
2018-07-10T03:57:12.888Z,2.30
2018-07-10T03:59:46.395Z,2.37
2018-07-10T04:02:14.021Z,2.50
2018-07-10T04:04:41.644Z,2.60
2018-07-10T04:07:09.105Z,2.30
2018-07-10T04:09:36.467Z,2.47
2018-07-10T04:12:03.947Z,2.77
2018-07-10T04:14:31.283Z,2.77
2018-07-10T04:16:58.882Z,2.37
2018-07-10T04:19:27.926Z,2.75
2018-07-10T04:21:56.592Z,2.65
2018-07-10T04:24:24.525Z,2.80
2018-07-10T04:27:13.856Z,2.55
2018-07-10T04:29:47.872Z,2.60
2018-07-10T04:32:15.364Z,2.60
2018-07-10T04:34:42.823Z,2.92
2018-07-10T04:37:13.065Z,3.08
2018-07-10T04:39:41.977Z,3.10
2018-07-10T04:42:31.587Z,2.80
2018-07-10T04:45:05.218Z,3.47
2018-07-10T04:47:54.487Z,3.42
2018-07-10T04:50:44.093Z,3.43
2018-07-10T04:53:24.499Z,2.93
2018-07-10T04:55:55.215Z,3.77
2018-07-10T04:58:25.486Z,3.37
2018-07-10T05:01:00.876Z,3.55
2018-07-10T05:03:29.311Z,3.87
2018-07-10T05:05:57.898Z,3.75
2018-07-10T05:08:25.133Z,4.15
2018-07-10T05:10:52.826Z,4.35
2018-07-10T05:13:20.192Z,5.07
2018-07-10T05:15:51.471Z,4.35
2018-07-10T05:18:18.896Z,4.50
2018-07-10T05:20:46.193Z,4.50
2018-07-10T05:23:14.639Z,4.55
2018-07-10T05:25:45.449Z,4.30
2018-07-10T05:28:12.804Z,4.70
2018-07-10T05:30:41.544Z,4.00
2018-07-10T05:33:10.050Z,4.30
2018-07-10T05:35:37.436Z,3.92
2018-07-10T05:38:05.256Z,4.20
2018-07-10T05:40:32.640Z,4.83
2018-07-10T05:43:01.999Z,4.70
2018-07-10T05:45:29.437Z,4.87
2018-07-10T05:47:59.248Z,4.80
2018-07-10T05:50:31.488Z,4.67
2018-07-10T05:52:58.826Z,4.80
2018-07-10T05:55:29.543Z,4.97
2018-07-10T05:57:57.985Z,5.03
2018-07-10T06:00:25.378Z,5.37
2018-07-10T06:02:53.116Z,5.30
2018-07-10T06:05:20.490Z,6.10
2018-07-10T06:07:49.203Z,6.20
2018-07-10T06:10:16.604Z,5.50
2018-07-10T06:12:43.957Z,5.80
2018-07-10T06:15:12.270Z,5.85
2018-07-10T06:17:39.619Z,5.67
2018-07-10T06:20:06.826Z,6.83
2018-07-10T06:22:34.218Z,6.72
2018-07-10T06:25:05.218Z,7.53
2018-07-10T06:27:43.275Z,7.47
2018-07-10T06:30:11.030Z,7.28
2018-07-10T06:33:51.390Z,7.30
2018-07-10T06:36:26.087Z,8.20
2018-07-10T06:38:53.979Z,8.40
2018-07-10T06:41:22.888Z,8.20
2018-07-10T06:43:55.105Z,8.15
2018-07-10T06:47:26.657Z,8.10
2018-07-10T06:49:54.470Z,8.80
2018-07-10T06:52:22.517Z,8.85
2018-07-10T06:55:06.849Z,8.50
2018-07-10T06:57:35.834Z,8.30
2018-07-10T07:00:07.808Z,8.83
2018-07-10T07:02:36.454Z,9.20
2018-07-10T07:05:04.433Z,9.83
2018-07-10T07:07:33.757Z,9.58
2018-07-10T07:10:04.461Z,9.20
2018-07-10T07:12:32.191Z,9.63
2018-07-10T07:14:59.650Z,9.73
2018-07-10T07:17:27.619Z,9.68
2018-07-10T07:19:54.898Z,10.45
2018-07-10T07:22:22.302Z,8.70
2018-07-10T07:24:50.585Z,9.70
2018-07-10T07:27:17.980Z,8.30
2018-07-10T07:29:45.683Z,8.60
2018-07-10T07:32:13.017Z,7.45
2018-07-10T07:34:40.390Z,7.37
2018-07-10T07:37:08.020Z,8.15
2018-07-10T07:39:35.604Z,7.22
2018-07-10T07:42:03.173Z,7.20
2018-07-10T07:44:30.637Z,7.55
2018-07-10T07:46:58.040Z,7.67
2018-07-10T07:49:25.413Z,6.92
2018-07-10T07:51:52.663Z,7.50
2018-07-10T07:54:20.412Z,7.92
2018-07-10T07:56:47.757Z,7.10
2018-07-10T07:59:15.092Z,6.90
2018-07-10T08:01:42.472Z,6.90
2018-07-10T08:04:09.962Z,6.80
2018-07-10T08:06:37.300Z,7.37
2018-07-10T08:09:05.883Z,7.08
2018-07-10T08:11:33.343Z,5.90
2018-07-10T08:14:00.726Z,6.72
2018-07-10T08:16:28.006Z,6.95
2018-07-10T08:18:55.514Z,7.40
2018-07-10T08:21:22.887Z,6.47
2018-07-10T08:23:50.264Z,6.28
2018-07-10T08:26:18.078Z,6.70
2018-07-10T08:28:45.464Z,7.72
2018-07-10T08:31:12.940Z,6.43
2018-07-10T08:33:40.421Z,7.43
2018-07-10T08:36:07.765Z,6.50
2018-07-10T08:38:39.587Z,6.30
2018-07-10T08:41:08.173Z,6.10
2018-07-10T08:43:35.608Z,6.23
2018-07-10T08:46:03.108Z,6.20
2018-07-10T08:48:31.042Z,5.80
2018-07-10T08:50:58.490Z,5.37
2018-07-10T08:53:26.335Z,6.50
2018-07-10T08:55:53.730Z,5.67
2018-07-10T08:58:21.063Z,7.00
2018-07-10T09:00:48.462Z,7.33
